Details From GMMX - MENARA
To GMFF - SAISS
Flight Number -
Tags generated
Created
Modified
Stats Distance 214 nm / 396 km
Max Altitude 23,500 ft / 7,163 m
Waypoints 4
Social Downloads 1
Likes 0
Share VATSIM

Download

Looking for another format? Having issues loading an existing format? Contact us
Advertisement - Login to hide

Notes

Basic altitude profile: - Ascent Rate: 2500ft/min - Ascent Speed: 250kts - Cruise Altitude: 35000ft - Cruise Speed: 420kts - Descent Rate: 1500ft/min - Descent Speed: 250kts Options: - Use NATs: yes - Use PACOTS: yes - Use low airways: yes - Use high airways: yes

Route

GMMX MAK UG850 ERLAM GMFF

ID Type Via Altitude Latitude Longitude Leg Dist Tot Dist Heading (true) Name
O GMMX APT - 0 ft / 0 m 31.60692˚ -8.03627˚ - 0 nm - MENARA
MAK VOR - 1,200 ft / 366 m 31.61278˚ -8.10306˚ 3 nm 3 nm 276° / 276° MARRAKECH VOR-DME
ERLAM FIX UG850 (AWY-HI) 23,500 ft / 7,163 m 32.91917˚ -6.39000˚ 117 nm 120 nm 47° / 48° -
O GMFF APT - 0 ft / 0 m 33.92733˚ -4.97793˚ 93 nm 213 nm 49° / 50° SAISS

Altitude Profile

Advertisement - Login to hide

Weather


0- 5 10 15 20 25 30 35+ Temperature / ° C

Clouds and Precipitation
Forecast for 2018-05-25 12:00 UTC. Updated 21 minutes ago

Ground ~20,000 ft ~40,000 ft Winds

GMMX

Details ICAO GMMX (RAK)
Name MENARA
Region Morocco
Timezone Africa/Casablanca (UTC+0.0)
Stats Elevation 1,545 ft / 471 m (AMSL)
Location 31.606920° -8.036265°
Runways 1
Magnetic Variation 1.950° W

METAR

GMMX 251130Z AUTO /////KT R10///// /// Q////

Decode

TAF

TAF TAF GMMX 250500Z 2506/2612 24005KT 8000 BKN020

Decode

Departure Runways

ID Width Length Bearing (true) Bearing (mag) Surface Threshold Offset Overrun Length
10 148 ft / 45 m 10,169 ft / 3,100 m 95.99° 97.94° Asphalt 918 ft / 280 m 0 ft / 0 m
28 148 ft / 45 m 10,169 ft / 3,100 m 276.00° 277.95° Asphalt 0 ft / 0 m 0 ft / 0 m

GMFF

Details ICAO GMFF (FEZ)
Name SAISS
Region Morocco
Timezone Africa/Casablanca (UTC+0.0)
Stats Elevation 1,900 ft / 579 m (AMSL)
Location 33.927327° -4.977931°
Runways 1
Magnetic Variation 0.984° W

METAR

GMFF 251130Z 30007KT 260V330 9999 BKN020 BKN033 20/14 Q1016 NOSIG

Decode

TAF

TAF TAF GMFF 250500Z 2506/2612 32004KT 3000 BR BKN004 BKN016 BECMB 2511/2515 8000 NSW SCT013 BKN026 BECMG 2601/2605 3000 BR OVC006

Decode

Destination Runways

ID Width Length Bearing (true) Bearing (mag) Surface Threshold Offset Overrun Length
09 148 ft / 45 m 10,461 ft / 3,189 m 90.26° 91.24° Asphalt 0 ft / 0 m 197 ft / 60 m
27 148 ft / 45 m 10,461 ft / 3,189 m 270.28° 271.26° Asphalt 820 ft / 250 m 0 ft / 0 m

Popular Alternatives